Time;durP1;ratioP1;P1;durP2;ratioP2;P2;SDS_P1;SDS_P2;PMS_P1;PMS_P2;Temp;Humidity;BMP_temperature;BMP_pressure;BME280_temperature;BME280_humidity;BME280_pressure;Samples;Min_cycle;Max_cycle;Signal;HPM_P1;HPM_P2
2022/11/03 00:01:43;;;;;;;28.33;14.27;;;;;;;15.24;73.63;101078.03;5069567;28;20044;-73
2022/11/03 00:04:11;;;;;;;19.05;13.05;;;;;;;15.16;73.94;101091.28;5044683;28;20049;-73
2022/11/03 00:06:45;;;;;;;22.98;14.57;;;;;;;14.37;74.61;100955.34;5071346;28;20064;-75
2022/11/03 00:09:13;;;;;;;23.70;15.18;;;;;;;15.15;74.44;101075.47;5066442;28;20044;-73
2022/11/03 00:11:40;;;;;;;30.30;16.75;;;;;;;15.08;74.91;101094.91;5066750;28;20060;-73
2022/11/03 00:14:08;;;;;;;32.97;16.25;;;;;;;14.31;75.13;100961.56;5062106;28;20124;-74
2022/11/03 00:16:33;;;;;;;23.83;16.30;;;;;;;14.31;75.17;100958.91;5030540;28;20048;-75
2022/11/03 00:19:01;;;;;;;26.75;15.57;;;;;;;14.46;75.00;100992.25;5051390;28;20051;-76
2022/11/03 00:21:27;;;;;;;25.48;14.52;;;;;;;14.34;74.70;100965.94;5050458;28;20048;-75
2022/11/03 00:23:58;;;;;;;24.52;12.80;;;;;;;15.18;74.60;101102.75;5059042;28;20053;-75
2022/11/03 00:26:25;;;;;;;27.10;16.98;;;;;;;14.43;74.72;101008.13;5045067;28;20067;-75
2022/11/03 00:29:13;;;;;;;26.98;14.93;;;;;;;15.02;74.80;101106.38;5060550;28;20043;-75
2022/11/03 00:31:42;;;;;;;22.38;14.68;;;;;;;15.09;74.76;101104.56;5030585;28;20050;-74
2022/11/03 00:34:08;;;;;;;30.83;15.70;;;;;;;15.05;74.69;101102.84;5017402;28;20444;-74
2022/11/03 00:36:42;;;;;;;35.08;16.70;;;;;;;14.21;74.35;100972.16;5047069;28;20043;-75
2022/11/03 00:39:09;;;;;;;32.60;15.20;;;;;;;14.20;74.59;100971.31;5049994;28;20041;-74
2022/11/03 00:44:57;;;;;;;25.52;15.48;;;;;;;14.95;74.42;101123.19;5070952;28;20086;-74
2022/11/03 00:47:22;;;;;;;26.47;15.47;;;;;;;14.70;74.45;101081.06;5048996;28;20373;-75
2022/11/03 00:49:47;;;;;;;28.15;14.40;;;;;;;14.99;73.95;101117.00;5056114;28;20541;-74
2022/11/03 00:52:13;;;;;;;27.35;13.30;;;;;;;14.30;73.88;100994.09;5063909;28;20484;-74
2022/11/03 00:54:39;;;;;;;29.13;16.73;;;;;;;14.34;73.91;101016.09;5070241;28;20479;-74
2022/11/03 00:57:23;;;;;;;39.53;15.73;;;;;;;15.03;73.79;101121.38;5068156;28;20058;-74
2022/11/03 01:03:11;;;;;;;35.15;17.45;;;;;;;14.19;74.05;101017.06;5052214;28;20198;-74
2022/11/03 01:08:35;;;;;;;27.92;13.65;;;;;;;14.73;74.38;101094.25;5057480;28;20117;-74
2022/11/03 01:13:52;;;;;;;27.00;15.63;;;;;;;14.96;74.73;101133.75;5039193;28;20531;-75
2022/11/03 01:16:18;;;;;;;43.00;18.98;;;;;;;14.87;74.90;101136.44;5049709;28;20053;-75
2022/11/03 01:18:53;;;;;;;25.75;15.95;;;;;;;14.91;74.77;101140.84;5048753;28;20393;-75
2022/11/03 01:21:19;;;;;;;33.97;18.02;;;;;;;14.82;75.29;101138.25;5049053;28;20040;-74
2022/11/03 01:23:45;;;;;;;29.05;16.17;;;;;;;14.00;75.38;100989.00;5042182;28;20041;-75
2022/11/03 01:26:12;;;;;;;24.15;15.40;;;;;;;14.74;75.02;101096.00;5031639;28;20114;-74
2022/11/03 01:28:41;;;;;;;23.20;15.55;;;;;;;14.35;75.04;101037.22;5048417;28;20041;-74
2022/11/03 01:31:09;;;;;;;28.33;16.50;;;;;;;14.24;75.07;101012.63;5049480;28;20154;-74
2022/11/03 01:33:34;;;;;;;25.17;15.60;;;;;;;14.47;75.17;101072.34;5050643;28;20064;-73
2022/11/03 01:36:00;;;;;;;33.38;18.40;;;;;;;14.82;75.08;101135.59;5049803;28;20484;-75
2022/11/03 01:38:26;;;;;;;30.00;17.88;;;;;;;14.76;75.47;101143.56;5048878;28;20090;-75
2022/11/03 01:40:52;;;;;;;20.45;15.50;;;;;;;14.80;75.61;101132.09;5050781;28;20088;-75
2022/11/03 01:43:23;;;;;;;33.42;17.20;;;;;;;14.63;75.17;101103.09;5030352;28;20050;-75
2022/11/03 01:46:11;;;;;;;23.90;15.35;;;;;;;14.61;74.75;101091.69;5049832;28;20087;-73
2022/11/03 01:48:46;;;;;;;26.77;16.42;;;;;;;14.01;75.12;100990.78;5048601;28;20051;-75
2022/11/03 01:51:16;;;;;;;27.42;16.55;;;;;;;14.01;75.10;101003.97;5031056;28;20072;-73
2022/11/03 01:53:46;;;;;;;20.83;15.82;;;;;;;14.00;75.63;101025.94;5048322;28;20048;-73
2022/11/03 01:56:14;;;;;;;22.88;14.95;;;;;;;14.41;75.85;101096.16;5048864;28;20025;-75
2022/11/03 01:58:43;;;;;;;28.73;17.23;;;;;;;14.51;76.73;101133.06;5049264;28;20098;-73
2022/11/03 02:01:10;;;;;;;21.90;15.50;;;;;;;14.59;76.27;101132.22;5048439;28;20044;-73
2022/11/03 02:03:44;;;;;;;25.80;16.30;;;;;;;14.00;76.51;101050.59;5048100;28;20070;-74
2022/11/03 02:06:10;;;;;;;33.28;19.00;;;;;;;14.37;76.88;101134.88;5048507;28;20049;-74
2022/11/03 02:08:56;;;;;;;31.40;16.63;;;;;;;14.38;77.04;101156.91;5053462;28;20076;-74
2022/11/03 02:14:11;;;;;;;26.67;16.10;;;;;;;13.68;77.19;101024.31;5051392;28;20527;-73
2022/11/03 02:16:37;;;;;;;32.13;16.90;;;;;;;14.43;77.03;101139.28;5069212;28;20040;-73
2022/11/03 02:19:04;;;;;;;25.50;16.80;;;;;;;13.57;76.90;100990.03;5067800;28;20048;-74
2022/11/03 02:21:56;;;;;;;31.52;18.63;;;;;;;14.39;77.46;101148.97;5053548;28;20044;-74
2022/11/03 02:24:42;;;;;;;24.80;16.58;;;;;;;14.05;78.29;101121.81;5055360;28;20128;-74
2022/11/03 02:27:07;;;;;;;30.77;16.13;;;;;;;14.31;77.71;101149.00;5068945;28;20048;-74
2022/11/03 02:29:33;;;;;;;24.00;16.67;;;;;;;14.28;77.93;101149.03;5068113;28;20077;-72
2022/11/03 02:32:10;;;;;;;33.88;18.25;;;;;;;14.01;77.78;101112.16;5069549;28;20025;-74
2022/11/03 02:34:41;;;;;;;21.00;15.50;;;;;;;13.93;77.96;101101.63;5068406;28;20505;-72
2022/11/03 02:37:27;;;;;;;36.88;17.38;;;;;;;14.06;78.31;101126.19;5069381;28;20201;-73
2022/11/03 02:40:03;;;;;;;31.70;19.60;;;;;;;13.79;77.99;101084.94;5069605;28;20051;-73
2022/11/03 02:42:30;;;;;;;26.50;17.75;;;;;;;13.40;78.49;101031.41;5068552;28;20044;-73
2022/11/03 02:45:01;;;;;;;29.65;16.52;;;;;;;14.12;78.55;101164.03;5068176;28;20051;-73
2022/11/03 02:47:40;;;;;;;30.83;18.98;;;;;;;13.67;77.98;101073.56;5067578;28;20051;-74
2022/11/03 02:50:09;;;;;;;27.52;17.45;;;;;;;13.50;78.20;101048.94;5069456;28;20457;-75
2022/11/03 02:52:46;;;;;;;24.63;16.60;;;;;;;13.69;78.67;101091.97;5063422;28;20033;-74
2022/11/03 02:55:30;;;;;;;28.33;18.65;;;;;;;14.18;78.74;101191.28;5048323;28;20055;-75
2022/11/03 02:58:18;;;;;;;36.63;19.02;;;;;;;13.43;78.83;101055.13;5048403;28;20349;-75
2022/11/03 03:00:43;;;;;;;33.88;19.15;;;;;;;14.02;79.37;101177.22;5061825;28;20045;-73
2022/11/03 03:03:33;;;;;;;25.15;17.23;;;;;;;13.34;79.55;101050.72;5072569;28;20040;-74
2022/11/03 03:06:06;;;;;;;31.38;17.55;;;;;;;13.97;79.61;101137.66;5056462;28;20032;-74
2022/11/03 03:08:57;;;;;;;24.08;17.33;;;;;;;14.05;79.13;101175.47;5068957;28;20147;-74
2022/11/03 03:11:38;;;;;;;27.10;16.50;;;;;;;13.30;79.61;101046.38;5067168;28;20039;-73
2022/11/03 03:14:23;;;;;;;42.63;19.38;;;;;;;13.34;80.22;101066.53;5063412;28;20040;-75
2022/11/03 03:16:57;;;;;;;32.70;17.90;;;;;;;13.93;80.45;101186.94;5065627;28;20181;-73
2022/11/03 03:19:51;;;;;;;39.75;20.80;;;;;;;13.81;80.87;101186.91;5067444;28;20040;-75
2022/11/03 03:22:52;;;;;;;;;;;;;;;13.93;80.60;101192.19;5030615;28;20456;-74
2022/11/03 03:25:40;;;;;;;25.10;16.95;;;;;;;13.91;80.62;101190.44;5070236;28;19916;-74
2022/11/03 03:28:14;;;;;;;36.63;19.33;;;;;;;12.94;80.98;101055.97;5071245;28;20048;-74
2022/11/03 03:30:42;;;;;;;28.83;17.02;;;;;;;13.20;81.35;101098.13;5064835;28;20059;-73
2022/11/03 03:33:08;;;;;;;32.38;18.90;;;;;;;12.87;81.32;101054.22;5071280;28;20044;-73
2022/11/03 03:35:37;;;;;;;36.67;19.27;;;;;;;12.77;82.48;101052.47;5071930;28;20024;-73
2022/11/03 03:38:12;;;;;;;23.13;18.40;;;;;;;12.98;81.87;101070.91;5073394;28;20038;-74
2022/11/03 03:41:09;;;;;;;31.48;17.17;;;;;;;13.68;82.01;101190.47;5072725;28;20033;-73
2022/11/03 03:43:35;;;;;;;30.77;19.17;;;;;;;13.08;82.33;101101.66;5070435;28;20040;-74
2022/11/03 03:46:12;;;;;;;33.67;20.42;;;;;;;13.57;82.50;101185.19;5071443;28;20549;-74
2022/11/03 03:48:38;;;;;;;31.42;18.67;;;;;;;13.54;82.72;101186.94;5070989;28;20059;-74
2022/11/03 03:51:06;;;;;;;23.20;18.00;;;;;;;13.61;82.41;101199.25;5069165;28;20040;-74
2022/11/03 03:53:31;;;;;;;39.45;19.45;;;;;;;13.60;82.71;101208.03;5070988;28;20055;-73
2022/11/03 03:55:58;;;;;;;26.15;20.10;;;;;;;13.57;82.78;101215.94;5071237;28;20380;-74
2022/11/03 03:58:23;;;;;;;33.30;20.42;;;;;;;13.51;81.92;101182.56;5071137;28;20073;-75
2022/11/03 04:00:49;;;;;;;30.33;20.42;;;;;;;13.67;82.26;101220.34;5069780;28;20232;-75
2022/11/03 04:03:29;;;;;;;29.40;19.52;;;;;;;13.57;82.48;101210.69;5069338;28;20044;-74
2022/11/03 04:05:54;;;;;;;35.95;20.50;;;;;;;13.10;82.41;101115.69;5063838;28;20044;-74
2022/11/03 04:08:20;;;;;;;31.25;19.60;;;;;;;12.86;82.74;101082.31;5071246;28;20048;-73
2022/11/03 04:22:49;;;;;;;31.40;20.80;;;;;;;13.55;83.37;101228.25;5080228;28;20082;-74
2022/11/03 04:25:14;;;;;;;32.60;20.92;;;;;;;13.27;84.01;101237.00;5081611;28;20044;-74
2022/11/03 04:27:40;;;;;;;29.23;18.98;;;;;;;12.66;84.23;101092.78;5074442;28;20044;-74
2022/11/03 04:33:38;;;;;;;29.90;20.38;;;;;;;13.59;83.53;101214.19;5071933;28;20070;-74
2022/11/03 04:39:27;;;;;;;29.40;18.98;;;;;;;12.74;83.28;101063.88;5053854;28;20040;-73
2022/11/03 04:42:23;;;;;;;25.70;19.42;;;;;;;13.59;83.25;101215.06;5070516;28;20041;-74
2022/11/03 04:44:49;;;;;;;30.85;18.67;;;;;;;13.38;83.50;101191.31;5042605;28;20048;-75
2022/11/03 04:47:17;;;;;;;28.25;20.40;;;;;;;13.46;83.54;101224.75;5063311;28;20032;-75
2022/11/03 04:49:45;;;;;;;30.95;20.45;;;;;;;12.98;84.60;101185.97;5069164;28;20147;-73
2022/11/03 04:52:18;;;;;;;33.25;21.58;;;;;;;12.52;84.40;101097.16;5051928;28;20036;-74
2022/11/03 04:54:49;;;;;;;30.38;19.67;;;;;;;12.86;83.96;101120.94;5067431;28;20045;-75
2022/11/03 04:57:16;;;;;;;42.08;20.95;;;;;;;12.58;84.07;101084.03;5051366;28;20033;-74
2022/11/03 04:59:44;;;;;;;38.33;20.30;;;;;;;13.28;84.76;101235.25;5067220;28;20098;-74
2022/11/03 05:02:16;;;;;;;39.65;21.67;;;;;;;12.64;84.16;101102.47;5068479;28;20032;-75
2022/11/03 05:04:42;;;;;;;34.85;20.70;;;;;;;13.46;84.05;101237.94;5069727;28;20102;-75
2022/11/03 05:07:23;;;;;;;37.90;22.98;;;;;;;13.37;84.35;101231.72;5069952;28;20045;-75
2022/11/03 05:09:49;;;;;;;31.15;22.25;;;;;;;12.49;84.43;101093.66;5035406;28;20057;-76
2022/11/03 05:12:15;;;;;;;37.13;21.45;;;;;;;13.39;84.29;101237.88;5050439;28;20507;-75
2022/11/03 05:14:41;;;;;;;36.97;23.20;;;;;;;13.49;84.17;101251.09;5047769;28;20079;-76
2022/11/03 05:17:26;;;;;;;39.53;23.35;;;;;;;12.66;85.36;101134.94;5048559;28;20033;-75
2022/11/03 05:19:58;;;;;;;41.08;20.83;;;;;;;12.67;85.05;101149.00;5045641;28;20040;-76
2022/11/03 05:22:30;;;;;;;38.88;22.67;;;;;;;12.48;85.56;101137.53;5038167;28;20044;-74
2022/11/03 05:25:02;;;;;;;37.22;23.27;;;;;;;12.71;88.04;101248.19;5047111;28;20469;-74
2022/11/03 05:27:29;;;;;;;39.72;22.65;;;;;;;12.72;89.21;101278.03;5047466;28;20041;-74
2022/11/03 05:29:57;;;;;;;38.47;22.33;;;;;;;12.84;88.12;101234.19;5052442;28;20468;-74
2022/11/03 05:32:29;;;;;;;35.92;21.33;;;;;;;12.53;86.90;101158.59;5043959;28;20067;-76
2022/11/03 05:34:55;;;;;;;34.45;22.23;;;;;;;13.28;86.63;101280.06;5045797;28;20047;-77
2022/11/03 05:37:32;;;;;;;35.20;21.33;;;;;;;13.02;87.39;101287.84;5048912;28;20063;-76
2022/11/03 05:40:02;;;;;;;38.55;22.88;;;;;;;12.86;89.08;101303.56;5046024;28;20116;-74
2022/11/03 05:42:35;;;;;;;33.22;23.00;;;;;;;12.75;89.16;101315.78;5048026;28;20044;-74
2022/11/03 05:45:13;;;;;;;46.23;24.27;;;;;;;12.77;89.09;101307.91;5038562;28;20063;-75
2022/11/03 05:47:39;;;;;;;35.35;25.02;;;;;;;12.72;89.03;101310.53;5029548;28;20033;-73
2022/11/03 05:50:26;;;;;;;39.70;23.33;;;;;;;12.33;89.19;101227.78;5030821;28;20029;-74
2022/11/03 05:53:30;;;;;;;32.97;24.50;;;;;;;12.82;88.97;101321.97;5043971;28;20050;-74
2022/11/03 05:59:33;;;;;;;37.13;24.75;;;;;;;12.59;89.52;101324.47;5048229;28;20384;-73
2022/11/03 06:02:37;;;;;;;41.88;25.65;;;;;;;12.81;89.41;101333.41;5056202;28;20029;-72
2022/11/03 06:05:19;;;;;;;42.38;23.98;;;;;;;12.42;88.71;101255.94;5048377;28;20037;-74
2022/11/03 06:07:46;;;;;;;36.85;24.80;;;;;;;12.61;88.93;101294.66;5047225;28;20049;-74
2022/11/03 06:10:38;;;;;;;38.78;25.70;;;;;;;13.11;88.33;101351.13;5067724;28;20053;-74
2022/11/03 06:13:12;;;;;;;47.15;25.73;;;;;;;13.04;88.39;101354.56;5061869;28;20056;-73
2022/11/03 06:15:41;;;;;;;56.28;24.83;;;;;;;12.89;88.49;101347.47;5071260;28;20068;-73
2022/11/03 06:18:14;;;;;;;36.00;24.38;;;;;;;12.09;88.78;101244.31;5068165;28;20094;-74
2022/11/03 06:20:41;;;;;;;42.15;25.33;;;;;;;12.81;89.25;101363.25;5066385;28;20102;-73
2022/11/03 06:23:15;;;;;;;56.90;25.60;;;;;;;12.85;88.67;101343.97;5069210;28;20081;-74
2022/11/03 06:25:42;;;;;;;35.53;23.58;;;;;;;12.12;88.84;101222.41;5068539;28;20051;-77
2022/11/03 06:28:22;;;;;;;43.42;25.08;;;;;;;12.48;88.38;101266.50;5066621;28;20047;-74
2022/11/03 06:30:48;;;;;;;38.22;25.23;;;;;;;12.97;88.16;101352.78;5064908;28;20079;-74
2022/11/03 06:33:20;;;;;;;37.90;24.65;;;;;;;12.99;88.35;101362.44;5068173;28;20451;-74
2022/11/03 06:35:48;;;;;;;33.42;23.65;;;;;;;12.73;87.87;101322.81;5068286;28;20760;-74
2022/11/03 06:38:30;;;;;;;37.88;22.83;;;;;;;12.34;88.46;101276.94;5068040;28;20035;-73
2022/11/03 06:40:57;;;;;;;34.70;23.17;;;;;;;12.67;88.48;101339.47;5068614;28;20068;-71
2022/11/03 06:43:36;;;;;;;32.80;22.30;;;;;;;12.22;88.07;101232.09;5068175;28;20127;-72
2022/11/03 06:46:19;;;;;;;40.50;23.00;;;;;;;12.46;88.05;101270.88;5061657;28;20025;-75
2022/11/03 06:48:44;;;;;;;36.67;23.60;;;;;;;12.90;88.20;101380.88;5068985;28;20040;-75
2022/11/03 06:51:20;;;;;;;34.08;24.67;;;;;;;12.34;87.89;101249.72;5067963;28;20428;-74
2022/11/03 06:53:47;;;;;;;40.50;23.33;;;;;;;12.82;87.63;101328.13;5050555;28;20082;-82
2022/11/03 06:56:20;;;;;;;35.55;23.60;;;;;;;12.91;88.22;101381.75;5050560;28;20025;-86
2022/11/03 06:58:48;;;;;;;46.67;26.27;;;;;;;12.38;87.13;101230.47;5052993;28;20060;-88
2022/11/03 07:01:17;;;;;;;38.67;23.90;;;;;;;13.23;87.19;101387.19;5055445;28;20067;-75
2022/11/03 07:03:43;;;;;;;47.15;25.80;;;;;;;12.86;87.24;101344.84;5070768;28;20170;-84
2022/11/03 07:06:08;;;;;;;54.85;27.25;;;;;;;13.12;87.59;101384.50;5071216;28;20457;-76
2022/11/03 07:08:46;;;;;;;52.50;25.83;;;;;;;13.35;86.37;101375.84;5091457;28;20058;-76
2022/11/03 07:11:26;;;;;;;43.88;26.95;;;;;;;13.13;87.08;101380.09;5071092;28;20028;-77
2022/11/03 07:13:56;;;;;;;48.80;25.58;;;;;;;13.07;87.50;101383.59;5044497;28;20052;-75
2022/11/03 07:16:40;;;;;;;36.15;24.83;;;;;;;13.32;86.66;101387.25;5070908;28;20591;-77
2022/11/03 07:19:20;;;;;;;39.25;25.63;;;;;;;12.77;85.69;101249.97;5054221;28;20431;-75
2022/11/03 07:21:51;;;;;;;39.15;25.40;;;;;;;13.50;86.14;101381.16;5067934;28;20028;-74
2022/11/03 07:24:28;;;;;;;40.00;25.52;;;;;;;13.05;84.54;101256.22;5071602;28;20473;-75
2022/11/03 07:27:28;;;;;;;52.40;28.08;;;;;;;13.48;86.16;101391.69;5071840;28;20045;-75
2022/11/03 07:29:59;;;;;;;46.33;24.92;;;;;;;13.48;84.72;101338.09;5069651;28;20072;-75
2022/11/03 07:32:31;;;;;;;36.53;24.27;;;;;;;13.21;84.77;101281.75;5071492;28;20032;-76
2022/11/03 07:35:03;;;;;;;38.28;26.85;;;;;;;13.66;84.64;101375.06;5071190;28;20020;-76
2022/11/03 07:37:29;;;;;;;69.80;27.75;;;;;;;13.95;83.32;101358.41;5091573;28;20034;-74
2022/11/03 07:39:57;;;;;;;43.08;26.13;;;;;;;14.23;82.46;101380.44;5091603;28;20031;-74
2022/11/03 07:42:26;;;;;;;54.33;29.40;;;;;;;14.13;82.72;101387.47;5083087;28;20067;-75
2022/11/03 07:44:52;;;;;;;51.33;30.08;;;;;;;13.55;84.23;101324.06;5070830;28;20045;-75
2022/11/03 07:47:26;;;;;;;70.10;28.95;;;;;;;14.22;82.49;101375.19;5070963;28;20013;-76
2022/11/03 07:50:13;;;;;;;46.53;27.63;;;;;;;14.37;81.86;101356.69;5053054;28;20503;-76
2022/11/03 07:52:39;;;;;;;44.30;26.95;;;;;;;14.63;81.02;101379.59;5062902;28;20045;-75
2022/11/03 07:55:10;;;;;;;58.13;25.20;;;;;;;14.61;80.81;101376.97;5050735;28;20406;-74
2022/11/03 07:57:35;;;;;;;54.83;26.65;;;;;;;14.02;80.48;101257.25;5051006;28;20521;-75
2022/11/03 08:00:06;;;;;;;41.75;23.50;;;;;;;14.52;79.28;101369.00;5068253;28;20209;-75
2022/11/03 08:02:35;;;;;;;39.97;22.52;;;;;;;14.43;79.68;101369.88;5070971;28;20033;-76
2022/11/03 08:05:01;;;;;;;33.35;22.65;;;;;;;14.02;78.64;101265.19;5071880;28;20024;-76
2022/11/03 08:07:27;;;;;;;32.17;23.10;;;;;;;14.80;78.49;101359.31;5069706;28;20059;-76
2022/11/03 08:09:53;;;;;;;44.35;24.92;;;;;;;15.02;77.08;101364.53;5069784;28;20044;-75
2022/11/03 08:12:19;;;;;;;37.60;22.88;;;;;;;15.21;77.84;101376.81;5070717;28;20058;-76
2022/11/03 08:14:45;;;;;;;33.25;19.33;;;;;;;14.45;76.98;101248.44;5072026;28;20032;-76
2022/11/03 08:17:11;;;;;;;31.05;21.85;;;;;;;14.55;76.68;101271.31;5072075;28;20035;-76
2022/11/03 08:19:37;;;;;;;36.30;23.67;;;;;;;14.26;77.06;101261.66;5071264;28;20036;-76
2022/11/03 08:22:02;;;;;;;42.10;21.85;;;;;;;14.50;76.59;101258.06;5068441;28;20032;-74
2022/11/03 08:24:28;;;;;;;33.13;19.33;;;;;;;15.09;76.25;101348.66;5062224;28;20036;-76
2022/11/03 08:27:06;;;;;;;32.70;21.50;;;;;;;15.23;75.87;101366.22;5070906;28;20068;-77
2022/11/03 08:29:32;;;;;;;33.78;21.85;;;;;;;14.26;76.13;101244.94;5069842;28;20083;-75
2022/11/03 08:31:57;;;;;;;37.63;22.50;;;;;;;14.28;76.28;101253.72;5072063;28;20016;-76
2022/11/03 08:34:23;;;;;;;42.70;21.65;;;;;;;14.93;76.04;101360.16;5068831;28;20397;-76
2022/11/03 08:36:48;;;;;;;42.33;21.83;;;;;;;15.01;75.40;101337.22;5069666;28;20047;-76
2022/11/03 08:39:14;;;;;;;29.02;19.75;;;;;;;15.33;75.28;101352.06;5047952;28;20385;-78
2022/11/03 08:41:39;;;;;;;26.00;19.25;;;;;;;15.24;74.91;101323.03;5050013;28;20048;-77
2022/11/03 08:44:05;;;;;;;43.90;22.90;;;;;;;15.19;74.85;101338.91;5066514;28;20020;-74
2022/11/03 08:46:31;;;;;;;47.35;21.95;;;;;;;15.24;75.24;101336.25;5069895;28;20036;-76
2022/11/03 08:48:58;;;;;;;37.55;22.90;;;;;;;15.13;75.14;101344.25;5070225;28;20040;-77
2022/11/03 08:51:24;;;;;;;30.27;22.35;;;;;;;14.74;75.10;101259.78;5070437;28;20056;-75
2022/11/03 08:53:52;;;;;;;31.45;20.50;;;;;;;15.02;74.95;101240.31;5054454;28;20422;-75
2022/11/03 08:56:18;;;;;;;26.85;20.92;;;;;;;15.77;73.33;101357.16;5070976;28;20469;-75
2022/11/03 08:58:44;;;;;;;35.65;22.30;;;;;;;15.41;73.62;101324.72;5070945;28;20077;-77
2022/11/03 09:01:09;;;;;;;34.20;20.00;;;;;;;15.76;73.36;101328.94;5050868;28;20473;-76
2022/11/03 09:03:35;;;;;;;33.45;20.23;;;;;;;15.42;72.60;101238.31;5053446;28;20127;-77
2022/11/03 09:06:01;;;;;;;34.05;20.02;;;;;;;15.33;71.86;101239.22;5069199;28;20041;-74
2022/11/03 09:08:26;;;;;;;39.78;18.75;;;;;;;16.15;71.62;101342.75;5070138;28;20127;-75
2022/11/03 09:11:06;;;;;;;25.05;16.63;;;;;;;16.21;71.25;101340.06;5069839;28;20529;-76
2022/11/03 09:13:32;;;;;;;31.90;18.95;;;;;;;15.72;70.83;101245.19;5069169;28;20041;-76
2022/11/03 09:15:57;;;;;;;27.13;18.30;;;;;;;16.38;71.02;101336.41;5069683;28;20043;-75
2022/11/03 09:18:23;;;;;;;35.78;20.05;;;;;;;15.41;70.92;101221.56;5068774;28;20043;-76
2022/11/03 09:20:49;;;;;;;25.05;17.90;;;;;;;15.60;69.86;101208.22;5069749;28;20033;-75
2022/11/03 09:23:29;;;;;;;31.85;17.52;;;;;;;16.44;69.29;101329.28;5070228;28;20029;-76
2022/11/03 09:25:55;;;;;;;29.00;15.20;;;;;;;16.24;69.49;101249.13;5069731;28;20043;-77
2022/11/03 09:28:20;;;;;;;26.15;17.92;;;;;;;16.11;68.35;101237.78;5067686;28;20037;-76
2022/11/03 09:30:46;;;;;;;24.67;17.90;;;;;;;15.86;68.62;101223.03;5069020;28;20041;-76
2022/11/03 09:33:11;;;;;;;25.15;16.45;;;;;;;16.53;69.19;101330.06;5052354;28;20036;-77
2022/11/03 09:35:37;;;;;;;24.08;17.38;;;;;;;15.80;68.67;101222.19;5056692;28;20039;-75
2022/11/03 09:38:02;;;;;;;23.58;14.88;;;;;;;16.38;69.00;101326.69;5050315;28;20021;-78
2022/11/03 09:40:27;;;;;;;32.80;17.73;;;;;;;15.76;68.71;101177.25;5046617;28;20041;-75
2022/11/03 09:42:53;;;;;;;23.95;16.70;;;;;;;16.55;68.03;101292.09;5069448;28;20041;-75
2022/11/03 09:45:19;;;;;;;43.30;17.77;;;;;;;16.90;67.59;101319.13;5069337;28;20491;-74
2022/11/03 09:47:47;;;;;;;26.08;15.52;;;;;;;15.88;67.68;101235.34;5069447;28;20037;-75
2022/11/03 09:50:18;;;;;;;27.77;16.33;;;;;;;16.57;67.44;101300.00;5068998;28;20123;-75
2022/11/03 09:52:43;;;;;;;21.45;14.05;;;;;;;16.11;67.07;101232.50;5068991;28;20143;-77
2022/11/03 09:55:15;;;;;;;25.60;16.98;;;;;;;16.61;66.27;101284.06;5043344;28;20152;-76
2022/11/03 09:57:48;;;;;;;51.17;17.92;;;;;;;16.75;66.41;101297.16;5046782;28;20040;-75
2022/11/03 10:00:19;;;;;;;26.10;13.82;;;;;;;16.68;66.01;101296.34;5048297;28;20377;-76
2022/11/03 10:02:46;;;;;;;25.63;15.20;;;;;;;16.75;65.61;101299.81;5048610;28;20055;-75
2022/11/03 10:05:15;;;;;;;20.05;14.00;;;;;;;16.50;65.10;101262.09;5064280;28;20056;-75
2022/11/03 10:07:42;;;;;;;21.63;14.88;;;;;;;16.80;64.95;101292.72;5048029;28;20067;-75
2022/11/03 10:10:19;;;;;;;25.10;13.63;;;;;;;16.88;65.19;101287.34;5066610;28;20048;-75
2022/11/03 10:12:48;;;;;;;16.45;11.85;;;;;;;16.32;64.15;101191.69;5067373;28;20044;-76
2022/11/03 10:15:18;;;;;;;27.77;12.68;;;;;;;16.91;64.19;101282.00;5067325;28;20067;-75
2022/11/03 10:17:45;;;;;;;28.33;13.60;;;;;;;17.23;62.51;101296.59;5065859;28;20372;-76
2022/11/03 10:20:18;;;;;;;25.75;14.80;;;;;;;17.20;62.58;101286.03;5067866;28;20034;-75
2022/11/03 10:22:46;;;;;;;23.52;13.85;;;;;;;17.20;62.24;101286.91;5068290;28;20123;-76
2022/11/03 10:25:36;;;;;;;24.00;12.98;;;;;;;17.45;62.13;101292.75;5067622;28;20166;-76
2022/11/03 10:28:14;;;;;;;22.27;12.57;;;;;;;17.60;61.73;101290.78;5067980;28;20465;-76
2022/11/03 10:31:07;;;;;;;17.58;11.85;;;;;;;16.83;61.29;101176.06;5065579;28;20038;-76
2022/11/03 10:33:37;;;;;;;20.13;10.67;;;;;;;17.68;60.51;101288.91;5052477;28;20127;-76
2022/11/03 10:36:29;;;;;;;31.52;12.32;;;;;;;17.74;60.30;101272.88;5066670;28;20044;-76
2022/11/03 10:38:56;;;;;;;18.15;11.88;;;;;;;17.46;60.93;101256.50;5068377;28;20040;-77
2022/11/03 10:41:26;;;;;;;15.70;11.32;;;;;;;16.84;61.61;101257.31;5050634;28;20173;-75
2022/11/03 10:44:01;;;;;;;18.38;11.18;;;;;;;17.24;61.37;101285.09;5067938;28;20071;-76
2022/11/03 10:46:27;;;;;;;22.45;11.95;;;;;;;16.92;60.68;101161.78;5067496;28;20353;-77
2022/11/03 10:49:18;;;;;;;20.10;11.98;;;;;;;17.58;59.77;101266.03;5068202;28;20041;-75
2022/11/03 10:51:46;;;;;;;23.25;10.70;;;;;;;17.50;60.45;101245.81;5049975;28;20384;-76
2022/11/03 10:54:15;;;;;;;15.57;9.73;;;;;;;17.43;59.85;101252.09;5067899;28;20052;-76
2022/11/03 10:56:41;;;;;;;21.83;10.85;;;;;;;16.89;59.78;101140.63;5067243;28;20508;-76
2022/11/03 10:59:31;;;;;;;16.95;10.20;;;;;;;17.39;59.67;101242.44;5068562;28;20024;-75
2022/11/03 11:02:00;;;;;;;23.20;11.77;;;;;;;17.43;59.89;101249.44;5068368;28;20379;-73
2022/11/03 11:04:27;;;;;;;22.23;12.18;;;;;;;17.02;59.35;101139.56;5066993;28;20064;-74
2022/11/03 11:06:52;;;;;;;26.73;12.43;;;;;;;16.68;58.43;101071.09;5067062;28;20033;-76
2022/11/03 11:09:34;;;;;;;15.52;11.02;;;;;;;16.74;59.18;101125.78;5068224;28;20037;-75
2022/11/03 11:12:01;;;;;;;21.52;10.70;;;;;;;17.67;59.08;101239.34;5067898;28;20041;-76
2022/11/03 11:14:29;;;;;;;19.63;12.15;;;;;;;17.07;59.20;101128.88;5065233;28;20435;-76
2022/11/03 11:16:58;;;;;;;18.20;12.43;;;;;;;17.20;59.66;101137.50;5068011;28;20111;-75
2022/11/03 11:19:26;;;;;;;24.88;10.63;;;;;;;17.83;58.83;101226.75;5048938;28;20037;-77
2022/11/03 11:21:52;;;;;;;17.50;9.43;;;;;;;17.10;58.57;101102.31;5067325;28;20032;-76
2022/11/03 11:24:42;;;;;;;16.77;10.15;;;;;;;17.65;58.38;101217.25;5067828;28;20089;-75
2022/11/03 11:27:35;;;;;;;17.92;9.50;;;;;;;17.95;57.82;101218.56;5066692;28;20032;-75
2022/11/03 11:30:04;;;;;;;20.05;9.82;;;;;;;17.34;57.74;101111.63;5067341;28;20068;-75
2022/11/03 11:32:39;;;;;;;16.67;10.27;;;;;;;17.76;57.41;101209.13;5053996;28;20052;-75
2022/11/03 11:35:29;;;;;;;15.85;8.88;;;;;;;17.68;57.17;101196.88;5066006;28;20472;-75
2022/11/03 11:37:54;;;;;;;21.48;10.50;;;;;;;17.28;57.97;101183.38;5064985;28;20048;-75
2022/11/03 11:40:22;;;;;;;15.02;9.82;;;;;;;17.43;58.06;101195.50;5067153;28;20056;-74
2022/11/03 11:43:03;;;;;;;13.63;9.20;;;;;;;17.44;57.80;101203.47;5069492;28;20035;-76
2022/11/03 11:46:05;;;;;;;20.45;10.10;;;;;;;17.59;57.75;101190.84;5070521;28;20369;-75
2022/11/03 11:48:32;;;;;;;18.67;9.95;;;;;;;16.72;57.61;101063.13;5070598;28;20040;-75
2022/11/03 11:51:01;;;;;;;18.48;8.65;;;;;;;17.57;58.08;101188.22;5070141;28;20507;-75
2022/11/03 11:53:32;;;;;;;17.92;11.15;;;;;;;17.46;57.66;101180.41;5052362;28;20161;-77
2022/11/03 11:56:01;;;;;;;14.40;9.90;;;;;;;17.66;57.63;101169.47;5071094;28;20024;-74
2022/11/03 11:58:32;;;;;;;18.23;11.10;;;;;;;17.90;57.85;101178.81;5069285;28;20036;-75
2022/11/03 12:01:04;;;;;;;16.88;10.63;;;;;;;17.17;57.47;101089.84;5070305;28;20072;-74
2022/11/03 12:03:37;;;;;;;13.82;9.07;;;;;;;17.72;57.59;101168.47;5070335;28;20127;-77
2022/11/03 12:06:03;;;;;;;;;;;;;;;17.90;57.10;101172.63;5070588;28;20043;-76
2022/11/03 12:08:30;;;;;;;12.95;9.57;;;;;;;17.57;57.37;101145.75;5070405;28;19924;-75